sensor_id;sensor_type;location;lat;lon;timestamp;pressure;altitude;pressure_sealevel;temperature;humidity
48156;BME280;35568;48.104;11.782;2023-04-29T00:01:50;95120.31;;;10.31;61.33
48156;BME280;35568;48.104;11.782;2023-04-29T00:04:17;95112.38;;;9.97;61.39
48156;BME280;35568;48.104;11.782;2023-04-29T00:06:43;95111.78;;;10.04;61.21
48156;BME280;35568;48.104;11.782;2023-04-29T00:09:10;95107.88;;;9.75;61.30
48156;BME280;35568;48.104;11.782;2023-04-29T00:11:37;95108.56;;;9.89;61.42
48156;BME280;35568;48.104;11.782;2023-04-29T00:14:04;95103.42;;;10.28;61.09
48156;BME280;35568;48.104;11.782;2023-04-29T00:16:30;95100.21;;;10.17;61.36
48156;BME280;35568;48.104;11.782;2023-04-29T00:18:57;95100.73;;;10.17;61.35
48156;BME280;35568;48.104;11.782;2023-04-29T00:21:24;95103.30;;;10.42;61.27
48156;BME280;35568;48.104;11.782;2023-04-29T00:23:51;95103.67;;;10.09;61.40
48156;BME280;35568;48.104;11.782;2023-04-29T00:26:18;95102.79;;;10.08;61.47
48156;BME280;35568;48.104;11.782;2023-04-29T00:28:44;95103.55;;;9.94;61.69
48156;BME280;35568;48.104;11.782;2023-04-29T00:31:11;95101.93;;;9.94;61.67
48156;BME280;35568;48.104;11.782;2023-04-29T00:33:38;95103.82;;;9.99;61.65
48156;BME280;35568;48.104;11.782;2023-04-29T00:36:05;95098.80;;;9.98;61.72
48156;BME280;35568;48.104;11.782;2023-04-29T00:38:32;95096.42;;;9.66;61.87
48156;BME280;35568;48.104;11.782;2023-04-29T00:40:59;95098.45;;;9.90;61.90
48156;BME280;35568;48.104;11.782;2023-04-29T00:43:26;95097.85;;;9.95;61.83
48156;BME280;35568;48.104;11.782;2023-04-29T00:45:53;95099.81;;;9.95;61.76
48156;BME280;35568;48.104;11.782;2023-04-29T00:48:20;95100.88;;;9.91;61.85
48156;BME280;35568;48.104;11.782;2023-04-29T00:50:47;95101.47;;;10.03;61.71
48156;BME280;35568;48.104;11.782;2023-04-29T00:53:13;95103.03;;;10.14;61.55
48156;BME280;35568;48.104;11.782;2023-04-29T00:55:40;95100.00;;;9.59;61.61
48156;BME280;35568;48.104;11.782;2023-04-29T00:58:10;95098.57;;;9.93;61.52
48156;BME280;35568;48.104;11.782;2023-04-29T01:00:37;95098.94;;;10.16;61.58
48156;BME280;35568;48.104;11.782;2023-04-29T01:03:05;95095.82;;;10.15;61.78
48156;BME280;35568;48.104;11.782;2023-04-29T01:05:33;95093.58;;;10.14;61.92
48156;BME280;35568;48.104;11.782;2023-04-29T01:08:12;95094.56;;;9.92;61.82
48156;BME280;35568;48.104;11.782;2023-04-29T01:10:44;95092.85;;;10.31;61.69
48156;BME280;35568;48.104;11.782;2023-04-29T01:13:17;95091.73;;;9.91;61.55
48156;BME280;35568;48.104;11.782;2023-04-29T01:15:53;95091.70;;;10.38;61.58
48156;BME280;35568;48.104;11.782;2023-04-29T01:18:28;95090.82;;;10.52;61.30
48156;BME280;35568;48.104;11.782;2023-04-29T01:20:57;95088.80;;;9.96;61.52
48156;BME280;35568;48.104;11.782;2023-04-29T01:23:25;95087.74;;;10.42;61.39
48156;BME280;35568;48.104;11.782;2023-04-29T01:25:52;95087.40;;;10.36;61.47
48156;BME280;35568;48.104;11.782;2023-04-29T01:28:32;95085.17;;;10.23;61.28
48156;BME280;35568;48.104;11.782;2023-04-29T01:31:07;95088.01;;;10.14;61.25
48156;BME280;35568;48.104;11.782;2023-04-29T01:33:43;95086.78;;;10.35;61.51
48156;BME280;35568;48.104;11.782;2023-04-29T01:36:21;95082.39;;;10.32;61.13
48156;BME280;35568;48.104;11.782;2023-04-29T01:39:06;95082.91;;;10.50;61.06
48156;BME280;35568;48.104;11.782;2023-04-29T01:41:42;95085.70;;;10.39;61.39
48156;BME280;35568;48.104;11.782;2023-04-29T01:44:14;95085.97;;;10.30;61.56
48156;BME280;35568;48.104;11.782;2023-04-29T01:46:42;95084.99;;;10.26;61.67
48156;BME280;35568;48.104;11.782;2023-04-29T01:49:09;95083.84;;;10.09;61.60
48156;BME280;35568;48.104;11.782;2023-04-29T01:51:36;95083.01;;;10.39;61.60
48156;BME280;35568;48.104;11.782;2023-04-29T01:54:03;95087.36;;;9.97;62.04
48156;BME280;35568;48.104;11.782;2023-04-29T01:56:29;95087.70;;;10.06;61.78
48156;BME280;35568;48.104;11.782;2023-04-29T01:58:56;95087.83;;;10.39;61.79
48156;BME280;35568;48.104;11.782;2023-04-29T02:01:23;95085.44;;;10.22;61.63
48156;BME280;35568;48.104;11.782;2023-04-29T02:03:50;95081.85;;;10.15;61.67
48156;BME280;35568;48.104;11.782;2023-04-29T02:06:17;95081.23;;;10.17;61.71
48156;BME280;35568;48.104;11.782;2023-04-29T02:08:43;95081.48;;;10.34;61.88
48156;BME280;35568;48.104;11.782;2023-04-29T02:11:10;95083.34;;;10.13;61.77
48156;BME280;35568;48.104;11.782;2023-04-29T02:13:37;95084.46;;;10.00;62.06
48156;BME280;35568;48.104;11.782;2023-04-29T02:16:08;95084.92;;;10.34;62.25
48156;BME280;35568;48.104;11.782;2023-04-29T02:18:35;95087.41;;;9.78;62.37
48156;BME280;35568;48.104;11.782;2023-04-29T02:21:02;95085.62;;;10.26;62.64
48156;BME280;35568;48.104;11.782;2023-04-29T02:23:29;95085.31;;;10.44;62.51
48156;BME280;35568;48.104;11.782;2023-04-29T02:25:55;95079.90;;;10.32;62.06
48156;BME280;35568;48.104;11.782;2023-04-29T02:28:22;95081.97;;;10.62;62.01
48156;BME280;35568;48.104;11.782;2023-04-29T02:30:49;95080.08;;;10.14;61.92
48156;BME280;35568;48.104;11.782;2023-04-29T02:33:16;95078.26;;;10.44;61.90
48156;BME280;35568;48.104;11.782;2023-04-29T02:35:43;95080.57;;;10.75;61.78
48156;BME280;35568;48.104;11.782;2023-04-29T02:38:10;95081.04;;;10.79;61.84
48156;BME280;35568;48.104;11.782;2023-04-29T02:40:40;95076.62;;;10.28;61.85
48156;BME280;35568;48.104;11.782;2023-04-29T02:43:08;95082.02;;;10.36;61.82
48156;BME280;35568;48.104;11.782;2023-04-29T02:45:35;95080.15;;;10.80;61.96
48156;BME280;35568;48.104;11.782;2023-04-29T02:48:02;95080.96;;;10.77;62.02
48156;BME280;35568;48.104;11.782;2023-04-29T02:50:29;95079.65;;;10.84;61.91
48156;BME280;35568;48.104;11.782;2023-04-29T02:52:56;95082.79;;;10.34;61.80
48156;BME280;35568;48.104;11.782;2023-04-29T02:55:23;95084.03;;;10.36;61.75
48156;BME280;35568;48.104;11.782;2023-04-29T02:57:49;95088.03;;;10.37;61.94
48156;BME280;35568;48.104;11.782;2023-04-29T03:03:00;95087.61;;;10.83;61.33
48156;BME280;35568;48.104;11.782;2023-04-29T03:05:27;95086.36;;;10.48;61.42
48156;BME280;35568;48.104;11.782;2023-04-29T03:07:54;95088.02;;;10.52;61.32
48156;BME280;35568;48.104;11.782;2023-04-29T03:10:21;95089.59;;;10.73;61.49
48156;BME280;35568;48.104;11.782;2023-04-29T03:12:47;95092.71;;;10.58;61.09
48156;BME280;35568;48.104;11.782;2023-04-29T03:15:14;95093.91;;;10.51;61.39
48156;BME280;35568;48.104;11.782;2023-04-29T03:17:41;95092.99;;;10.77;61.26
48156;BME280;35568;48.104;11.782;2023-04-29T03:20:08;95094.05;;;10.66;61.46
48156;BME280;35568;48.104;11.782;2023-04-29T03:22:35;95088.16;;;10.26;61.81
48156;BME280;35568;48.104;11.782;2023-04-29T03:25:03;95087.50;;;10.41;61.61
48156;BME280;35568;48.104;11.782;2023-04-29T03:27:30;95083.20;;;10.50;61.46
48156;BME280;35568;48.104;11.782;2023-04-29T03:29:57;95086.14;;;10.41;61.50
48156;BME280;35568;48.104;11.782;2023-04-29T03:32:23;95086.25;;;10.40;61.60
48156;BME280;35568;48.104;11.782;2023-04-29T03:34:50;95087.16;;;10.69;61.40
48156;BME280;35568;48.104;11.782;2023-04-29T03:37:17;95087.41;;;10.51;61.65
48156;BME280;35568;48.104;11.782;2023-04-29T03:39:44;95088.80;;;10.34;61.69
48156;BME280;35568;48.104;11.782;2023-04-29T03:42:11;95090.23;;;10.98;61.43
48156;BME280;35568;48.104;11.782;2023-04-29T03:44:37;95087.70;;;10.51;61.42
48156;BME280;35568;48.104;11.782;2023-04-29T03:47:04;95089.17;;;10.44;61.52
48156;BME280;35568;48.104;11.782;2023-04-29T03:49:31;95091.92;;;10.43;61.71
48156;BME280;35568;48.104;11.782;2023-04-29T03:51:58;95091.81;;;10.46;61.77
48156;BME280;35568;48.104;11.782;2023-04-29T03:54:25;95090.41;;;10.58;61.52
48156;BME280;35568;48.104;11.782;2023-04-29T03:56:52;95092.84;;;11.09;61.60
48156;BME280;35568;48.104;11.782;2023-04-29T03:59:18;95090.57;;;10.57;61.76
48156;BME280;35568;48.104;11.782;2023-04-29T04:01:45;95090.12;;;10.61;61.81
48156;BME280;35568;48.104;11.782;2023-04-29T04:04:12;95092.32;;;10.65;61.67
48156;BME280;35568;48.104;11.782;2023-04-29T04:06:39;95093.16;;;10.69;61.62
48156;BME280;35568;48.104;11.782;2023-04-29T04:09:05;95092.51;;;10.71;61.62
48156;BME280;35568;48.104;11.782;2023-04-29T04:11:32;95095.37;;;10.69;61.76
48156;BME280;35568;48.104;11.782;2023-04-29T04:13:59;95095.74;;;10.87;61.47
48156;BME280;35568;48.104;11.782;2023-04-29T04:16:26;95096.11;;;10.70;61.77
48156;BME280;35568;48.104;11.782;2023-04-29T04:18:53;95099.31;;;10.85;61.68
48156;BME280;35568;48.104;11.782;2023-04-29T04:21:19;95102.50;;;11.01;61.36
48156;BME280;35568;48.104;11.782;2023-04-29T04:23:46;95101.18;;;11.18;61.36
48156;BME280;35568;48.104;11.782;2023-04-29T04:26:13;95103.73;;;11.00;61.36
48156;BME280;35568;48.104;11.782;2023-04-29T04:28:40;95102.12;;;11.10;61.29
48156;BME280;35568;48.104;11.782;2023-04-29T04:31:07;95109.15;;;11.15;61.16
48156;BME280;35568;48.104;11.782;2023-04-29T04:33:33;95109.46;;;11.11;61.24
48156;BME280;35568;48.104;11.782;2023-04-29T04:36:00;95108.87;;;10.67;61.51
48156;BME280;35568;48.104;11.782;2023-04-29T04:38:27;95110.16;;;11.02;61.60
48156;BME280;35568;48.104;11.782;2023-04-29T04:40:54;95110.45;;;10.90;62.07
48156;BME280;35568;48.104;11.782;2023-04-29T04:43:21;95108.48;;;11.36;61.87
48156;BME280;35568;48.104;11.782;2023-04-29T04:45:47;95105.74;;;11.24;61.76
48156;BME280;35568;48.104;11.782;2023-04-29T04:48:14;95110.61;;;11.36;61.47
48156;BME280;35568;48.104;11.782;2023-04-29T04:50:41;95111.67;;;11.26;61.87
48156;BME280;35568;48.104;11.782;2023-04-29T04:53:08;95114.52;;;11.07;62.06
48156;BME280;35568;48.104;11.782;2023-04-29T04:55:35;95116.16;;;11.37;61.95
48156;BME280;35568;48.104;11.782;2023-04-29T04:58:01;95117.90;;;11.57;61.72
48156;BME280;35568;48.104;11.782;2023-04-29T05:00:28;95116.84;;;11.23;61.72
48156;BME280;35568;48.104;11.782;2023-04-29T05:02:55;95117.10;;;11.59;61.94
48156;BME280;35568;48.104;11.782;2023-04-29T05:05:22;95119.68;;;11.56;61.51
48156;BME280;35568;48.104;11.782;2023-04-29T05:07:49;95122.89;;;11.53;61.65
48156;BME280;35568;48.104;11.782;2023-04-29T05:10:16;95122.99;;;11.47;61.91
48156;BME280;35568;48.104;11.782;2023-04-29T05:12:42;95124.79;;;11.69;61.54
48156;BME280;35568;48.104;11.782;2023-04-29T05:15:10;95126.02;;;11.74;61.51
48156;BME280;35568;48.104;11.782;2023-04-29T05:17:37;95124.56;;;11.50;62.06
48156;BME280;35568;48.104;11.782;2023-04-29T05:20:05;95126.21;;;11.42;61.97
48156;BME280;35568;48.104;11.782;2023-04-29T05:22:32;95125.92;;;11.76;61.75
48156;BME280;35568;48.104;11.782;2023-04-29T05:24:59;95124.33;;;11.92;61.63
48156;BME280;35568;48.104;11.782;2023-04-29T05:27:26;95128.30;;;11.54;61.13
48156;BME280;35568;48.104;11.782;2023-04-29T05:29:52;95133.03;;;12.32;60.26
48156;BME280;35568;48.104;11.782;2023-04-29T05:32:19;95133.50;;;12.33;60.58
48156;BME280;35568;48.104;11.782;2023-04-29T05:34:46;95134.61;;;12.49;60.45
48156;BME280;35568;48.104;11.782;2023-04-29T05:37:13;95139.34;;;12.20;60.99
48156;BME280;35568;48.104;11.782;2023-04-29T05:39:40;95142.58;;;12.38;60.86
48156;BME280;35568;48.104;11.782;2023-04-29T05:42:06;95141.82;;;12.39;60.82
48156;BME280;35568;48.104;11.782;2023-04-29T05:44:33;95143.50;;;12.65;60.53
48156;BME280;35568;48.104;11.782;2023-04-29T05:47:00;95149.18;;;12.90;60.19
48156;BME280;35568;48.104;11.782;2023-04-29T05:49:27;95151.17;;;13.28;60.00
48156;BME280;35568;48.104;11.782;2023-04-29T05:51:54;95152.95;;;13.48;59.46
48156;BME280;35568;48.104;11.782;2023-04-29T05:54:20;95155.91;;;13.09;59.56
48156;BME280;35568;48.104;11.782;2023-04-29T05:56:47;95154.25;;;13.21;59.23
48156;BME280;35568;48.104;11.782;2023-04-29T05:59:14;95156.93;;;13.70;58.54
48156;BME280;35568;48.104;11.782;2023-04-29T06:01:41;95155.81;;;13.37;59.27
48156;BME280;35568;48.104;11.782;2023-04-29T06:04:08;95160.52;;;13.72;59.00
48156;BME280;35568;48.104;11.782;2023-04-29T06:06:35;95159.95;;;13.91;58.48
48156;BME280;35568;48.104;11.782;2023-04-29T06:09:02;95160.93;;;14.18;58.20
48156;BME280;35568;48.104;11.782;2023-04-29T06:11:29;95164.97;;;14.05;58.26
48156;BME280;35568;48.104;11.782;2023-04-29T06:13:55;95165.69;;;14.51;58.48
48156;BME280;35568;48.104;11.782;2023-04-29T06:16:22;95166.46;;;14.79;57.47
48156;BME280;35568;48.104;11.782;2023-04-29T06:18:49;95178.44;;;14.67;57.75
48156;BME280;35568;48.104;11.782;2023-04-29T06:21:16;95179.48;;;14.76;57.35
48156;BME280;35568;48.104;11.782;2023-04-29T06:23:43;95178.31;;;14.42;57.51
48156;BME280;35568;48.104;11.782;2023-04-29T06:26:09;95181.10;;;14.84;57.56
48156;BME280;35568;48.104;11.782;2023-04-29T06:28:36;95188.58;;;14.82;57.53
48156;BME280;35568;48.104;11.782;2023-04-29T06:31:03;95189.05;;;14.41;57.70
48156;BME280;35568;48.104;11.782;2023-04-29T06:33:30;95188.08;;;14.76;57.40
48156;BME280;35568;48.104;11.782;2023-04-29T06:35:57;95191.74;;;15.23;57.22
48156;BME280;35568;48.104;11.782;2023-04-29T06:38:24;95191.29;;;15.37;56.20
48156;BME280;35568;48.104;11.782;2023-04-29T06:40:51;95191.61;;;15.10;55.84
48156;BME280;35568;48.104;11.782;2023-04-29T06:43:18;95196.36;;;15.75;54.98
48156;BME280;35568;48.104;11.782;2023-04-29T06:45:45;95195.56;;;16.09;55.61
48156;BME280;35568;48.104;11.782;2023-04-29T06:48:12;95200.59;;;15.60;55.36
48156;BME280;35568;48.104;11.782;2023-04-29T06:50:48;95200.74;;;15.56;55.18
48156;BME280;35568;48.104;11.782;2023-04-29T06:53:15;95201.49;;;15.79;55.23
48156;BME280;35568;48.104;11.782;2023-04-29T06:55:42;95201.12;;;15.87;54.92
48156;BME280;35568;48.104;11.782;2023-04-29T06:58:09;95196.80;;;15.84;54.42
48156;BME280;35568;48.104;11.782;2023-04-29T07:00:35;95203.08;;;15.58;54.19
48156;BME280;35568;48.104;11.782;2023-04-29T07:03:02;95207.50;;;15.96;53.90
48156;BME280;35568;48.104;11.782;2023-04-29T07:05:29;95211.67;;;15.10;55.20
48156;BME280;35568;48.104;11.782;2023-04-29T07:07:56;95210.43;;;15.69;54.59
48156;BME280;35568;48.104;11.782;2023-04-29T07:10:22;95211.31;;;16.03;54.05
48156;BME280;35568;48.104;11.782;2023-04-29T07:12:50;95207.41;;;16.22;53.86
48156;BME280;35568;48.104;11.782;2023-04-29T07:15:18;95208.42;;;16.66;52.55
48156;BME280;35568;48.104;11.782;2023-04-29T07:17:45;95208.14;;;16.68;51.42
48156;BME280;35568;48.104;11.782;2023-04-29T07:25:02;95202.68;;;16.93;52.04
48156;BME280;35568;48.104;11.782;2023-04-29T07:27:29;95203.25;;;17.26;51.04
48156;BME280;35568;48.104;11.782;2023-04-29T07:29:58;95204.00;;;17.13;49.67
48156;BME280;35568;48.104;11.782;2023-04-29T07:32:25;95207.11;;;17.13;49.29
48156;BME280;35568;48.104;11.782;2023-04-29T07:34:53;95208.90;;;17.41;48.88
48156;BME280;35568;48.104;11.782;2023-04-29T07:37:19;95208.60;;;17.12;49.33
48156;BME280;35568;48.104;11.782;2023-04-29T07:39:46;95212.39;;;17.26;48.55
48156;BME280;35568;48.104;11.782;2023-04-29T07:42:13;95210.16;;;17.52;48.61
48156;BME280;35568;48.104;11.782;2023-04-29T07:44:40;95213.89;;;17.62;49.53
48156;BME280;35568;48.104;11.782;2023-04-29T07:47:07;95213.60;;;18.31;48.03
48156;BME280;35568;48.104;11.782;2023-04-29T07:49:34;95216.12;;;18.21;47.72
48156;BME280;35568;48.104;11.782;2023-04-29T07:52:01;95212.38;;;18.19;46.93
48156;BME280;35568;48.104;11.782;2023-04-29T07:54:27;95216.43;;;18.74;46.33
48156;BME280;35568;48.104;11.782;2023-04-29T07:56:57;95213.60;;;18.27;45.68
48156;BME280;35568;48.104;11.782;2023-04-29T07:59:24;95218.08;;;18.01;46.71
48156;BME280;35568;48.104;11.782;2023-04-29T08:01:50;95215.20;;;18.65;45.94
48156;BME280;35568;48.104;11.782;2023-04-29T08:04:17;95219.73;;;19.13;44.95
48156;BME280;35568;48.104;11.782;2023-04-29T08:06:44;95219.50;;;19.23;44.17
48156;BME280;35568;48.104;11.782;2023-04-29T08:09:11;95220.55;;;18.60;43.87
48156;BME280;35568;48.104;11.782;2023-04-29T08:11:37;95221.16;;;19.25;45.51
48156;BME280;35568;48.104;11.782;2023-04-29T08:14:04;95225.00;;;19.10;43.82
48156;BME280;35568;48.104;11.782;2023-04-29T08:16:31;95224.35;;;18.83;43.77
48156;BME280;35568;48.104;11.782;2023-04-29T08:18:58;95226.44;;;17.89;45.52
48156;BME280;35568;48.104;11.782;2023-04-29T08:21:24;95228.65;;;18.35;46.22
48156;BME280;35568;48.104;11.782;2023-04-29T08:23:51;95227.97;;;18.21;45.77
48156;BME280;35568;48.104;11.782;2023-04-29T08:26:18;95228.93;;;18.17;46.04
48156;BME280;35568;48.104;11.782;2023-04-29T08:28:45;95229.76;;;18.59;45.21
48156;BME280;35568;48.104;11.782;2023-04-29T08:31:15;95230.01;;;18.31;45.79
48156;BME280;35568;48.104;11.782;2023-04-29T08:33:43;95226.06;;;17.89;45.32
48156;BME280;35568;48.104;11.782;2023-04-29T08:36:09;95225.36;;;17.57;46.09
48156;BME280;35568;48.104;11.782;2023-04-29T08:38:36;95226.39;;;17.68;46.29
48156;BME280;35568;48.104;11.782;2023-04-29T08:41:06;95227.18;;;18.00;46.26
48156;BME280;35568;48.104;11.782;2023-04-29T08:43:34;95226.94;;;19.25;44.14
48156;BME280;35568;48.104;11.782;2023-04-29T08:46:02;95224.77;;;19.80;42.77
48156;BME280;35568;48.104;11.782;2023-04-29T08:48:29;95219.29;;;19.66;41.64
48156;BME280;35568;48.104;11.782;2023-04-29T08:50:57;95221.86;;;19.42;42.02
48156;BME280;35568;48.104;11.782;2023-04-29T08:53:23;95219.75;;;18.73;42.75
48156;BME280;35568;48.104;11.782;2023-04-29T08:55:51;95220.02;;;18.36;42.64
48156;BME280;35568;48.104;11.782;2023-04-29T08:58:20;95225.06;;;18.02;43.33
48156;BME280;35568;48.104;11.782;2023-04-29T09:00:48;95224.50;;;18.08;44.07
48156;BME280;35568;48.104;11.782;2023-04-29T09:03:28;95223.58;;;18.22;44.56
48156;BME280;35568;48.104;11.782;2023-04-29T09:05:59;95219.64;;;17.68;44.91
48156;BME280;35568;48.104;11.782;2023-04-29T09:08:27;95217.28;;;18.00;44.60
48156;BME280;35568;48.104;11.782;2023-04-29T09:10:55;95215.69;;;19.52;42.41
48156;BME280;35568;48.104;11.782;2023-04-29T09:13:24;95216.02;;;20.28;40.70
48156;BME280;35568;48.104;11.782;2023-04-29T09:15:51;95213.00;;;20.67;39.06
48156;BME280;35568;48.104;11.782;2023-04-29T09:18:51;95208.96;;;21.08;38.00
48156;BME280;35568;48.104;11.782;2023-04-29T09:21:19;95198.65;;;21.62;36.50
48156;BME280;35568;48.104;11.782;2023-04-29T09:23:49;95194.58;;;22.74;35.77
48156;BME280;35568;48.104;11.782;2023-04-29T09:26:16;95197.60;;;22.00;36.22
48156;BME280;35568;48.104;11.782;2023-04-29T09:28:43;95197.89;;;21.49;37.27
48156;BME280;35568;48.104;11.782;2023-04-29T09:31:10;95194.11;;;21.08;36.30
48156;BME280;35568;48.104;11.782;2023-04-29T09:33:54;95191.82;;;21.83;37.85
48156;BME280;35568;48.104;11.782;2023-04-29T09:36:39;95194.73;;;20.78;36.03
48156;BME280;35568;48.104;11.782;2023-04-29T09:39:07;95196.89;;;21.10;36.84
48156;BME280;35568;48.104;11.782;2023-04-29T09:41:35;95196.74;;;20.44;38.23
48156;BME280;35568;48.104;11.782;2023-04-29T09:44:03;95199.59;;;20.09;38.81
48156;BME280;35568;48.104;11.782;2023-04-29T09:46:32;95201.16;;;19.59;39.78
48156;BME280;35568;48.104;11.782;2023-04-29T09:49:00;95199.73;;;19.28;40.52
48156;BME280;35568;48.104;11.782;2023-04-29T09:51:27;95200.35;;;19.55;40.34
48156;BME280;35568;48.104;11.782;2023-04-29T09:53:53;95206.46;;;19.57;40.89
48156;BME280;35568;48.104;11.782;2023-04-29T09:56:20;95203.13;;;20.05;40.28
48156;BME280;35568;48.104;11.782;2023-04-29T09:58:47;95203.54;;;19.91;40.12
48156;BME280;35568;48.104;11.782;2023-04-29T10:01:14;95207.16;;;20.00;39.10
48156;BME280;35568;48.104;11.782;2023-04-29T10:03:42;95206.76;;;20.34;39.16
48156;BME280;35568;48.104;11.782;2023-04-29T10:06:09;95204.13;;;20.09;38.43
48156;BME280;35568;48.104;11.782;2023-04-29T10:08:37;95203.88;;;19.57;38.60
48156;BME280;35568;48.104;11.782;2023-04-29T10:11:05;95204.14;;;20.47;37.94
48156;BME280;35568;48.104;11.782;2023-04-29T10:13:33;95199.86;;;20.48;37.77
48156;BME280;35568;48.104;11.782;2023-04-29T10:16:07;95195.94;;;20.74;37.87
48156;BME280;35568;48.104;11.782;2023-04-29T10:18:40;95191.77;;;21.49;35.32
48156;BME280;35568;48.104;11.782;2023-04-29T10:21:10;95189.52;;;22.82;35.87
48156;BME280;35568;48.104;11.782;2023-04-29T10:23:41;95183.00;;;23.52;32.31
48156;BME280;35568;48.104;11.782;2023-04-29T10:26:11;95185.59;;;24.22;32.21
48156;BME280;35568;48.104;11.782;2023-04-29T10:28:39;95183.00;;;24.84;30.31
48156;BME280;35568;48.104;11.782;2023-04-29T10:31:09;95182.30;;;24.13;31.31
48156;BME280;35568;48.104;11.782;2023-04-29T10:33:39;95195.38;;;22.39;35.28
48156;BME280;35568;48.104;11.782;2023-04-29T10:36:08;95199.68;;;21.25;37.67
48156;BME280;35568;48.104;11.782;2023-04-29T10:38:39;95200.70;;;19.90;40.39
48156;BME280;35568;48.104;11.782;2023-04-29T10:41:09;95205.28;;;20.31;40.13
48156;BME280;35568;48.104;11.782;2023-04-29T10:43:41;95203.42;;;20.18;40.41
48156;BME280;35568;48.104;11.782;2023-04-29T10:46:25;95202.52;;;20.18;39.88
48156;BME280;35568;48.104;11.782;2023-04-29T10:48:56;95207.93;;;19.70;40.51
48156;BME280;35568;48.104;11.782;2023-04-29T10:51:28;95203.90;;;19.53;41.10
48156;BME280;35568;48.104;11.782;2023-04-29T10:54:06;95197.93;;;19.12;41.49
48156;BME280;35568;48.104;11.782;2023-04-29T10:56:36;95200.66;;;19.79;40.61
48156;BME280;35568;48.104;11.782;2023-04-29T10:59:03;95191.76;;;20.33;39.47
48156;BME280;35568;48.104;11.782;2023-04-29T11:01:41;95187.81;;;21.80;38.11
48156;BME280;35568;48.104;11.782;2023-04-29T11:04:08;95185.05;;;22.70;36.62
48156;BME280;35568;48.104;11.782;2023-04-29T11:06:41;95180.24;;;23.53;35.51
48156;BME280;35568;48.104;11.782;2023-04-29T11:09:10;95176.95;;;22.97;34.60
48156;BME280;35568;48.104;11.782;2023-04-29T11:11:44;95176.89;;;22.92;33.31
48156;BME280;35568;48.104;11.782;2023-04-29T11:14:12;95178.66;;;23.32;33.70
48156;BME280;35568;48.104;11.782;2023-04-29T11:16:49;95179.55;;;23.48;32.46
48156;BME280;35568;48.104;11.782;2023-04-29T11:19:17;95172.89;;;22.63;33.01
48156;BME280;35568;48.104;11.782;2023-04-29T11:21:45;95167.59;;;21.90;35.13
48156;BME280;35568;48.104;11.782;2023-04-29T11:24:12;95172.25;;;20.97;35.95
48156;BME280;35568;48.104;11.782;2023-04-29T11:26:39;95183.43;;;20.44;37.28
48156;BME280;35568;48.104;11.782;2023-04-29T11:29:07;95183.35;;;19.69;38.15
48156;BME280;35568;48.104;11.782;2023-04-29T11:31:34;95186.21;;;19.74;38.06
48156;BME280;35568;48.104;11.782;2023-04-29T11:34:03;95189.66;;;20.78;37.25
48156;BME280;35568;48.104;11.782;2023-04-29T11:36:31;95182.58;;;22.26;35.75
48156;BME280;35568;48.104;11.782;2023-04-29T11:38:59;95181.09;;;23.16;33.08
48156;BME280;35568;48.104;11.782;2023-04-29T11:41:26;95183.52;;;23.86;31.72
48156;BME280;35568;48.104;11.782;2023-04-29T11:43:55;95178.67;;;23.43;30.94
48156;BME280;35568;48.104;11.782;2023-04-29T11:46:22;95178.85;;;23.95;31.38
48156;BME280;35568;48.104;11.782;2023-04-29T11:48:49;95181.23;;;24.52;30.27
48156;BME280;35568;48.104;11.782;2023-04-29T11:51:17;95179.69;;;23.72;31.11
48156;BME280;35568;48.104;11.782;2023-04-29T11:53:44;95190.66;;;22.73;31.14
48156;BME280;35568;48.104;11.782;2023-04-29T11:56:11;95187.05;;;23.10;31.47
48156;BME280;35568;48.104;11.782;2023-04-29T11:58:38;95187.24;;;22.91;31.30
48156;BME280;35568;48.104;11.782;2023-04-29T12:01:07;95186.83;;;22.14;31.62
48156;BME280;35568;48.104;11.782;2023-04-29T12:03:34;95190.68;;;21.86;33.02
48156;BME280;35568;48.104;11.782;2023-04-29T12:06:01;95193.32;;;20.14;34.12
48156;BME280;35568;48.104;11.782;2023-04-29T12:08:29;95202.33;;;20.63;34.24
48156;BME280;35568;48.104;11.782;2023-04-29T12:10:57;95190.36;;;21.20;34.05
48156;BME280;35568;48.104;11.782;2023-04-29T12:13:26;95192.90;;;22.34;32.05
48156;BME280;35568;48.104;11.782;2023-04-29T12:15:53;95189.52;;;22.54;31.46
48156;BME280;35568;48.104;11.782;2023-04-29T12:18:21;95180.81;;;23.97;30.84
48156;BME280;35568;48.104;11.782;2023-04-29T12:20:48;95177.91;;;24.49;29.42
48156;BME280;35568;48.104;11.782;2023-04-29T12:23:18;95184.04;;;24.35;28.08
48156;BME280;35568;48.104;11.782;2023-04-29T12:25:48;95185.67;;;22.78;30.18
48156;BME280;35568;48.104;11.782;2023-04-29T12:28:16;95187.22;;;22.34;30.45
48156;BME280;35568;48.104;11.782;2023-04-29T12:30:43;95188.10;;;22.04;30.94
48156;BME280;35568;48.104;11.782;2023-04-29T12:33:15;95187.83;;;21.87;31.07
48156;BME280;35568;48.104;11.782;2023-04-29T12:35:41;95192.26;;;20.88;31.94
48156;BME280;35568;48.104;11.782;2023-04-29T12:38:08;95188.95;;;21.27;32.43
48156;BME280;35568;48.104;11.782;2023-04-29T12:40:35;95190.93;;;21.13;31.91
48156;BME280;35568;48.104;11.782;2023-04-29T12:43:06;95190.46;;;21.75;31.47
48156;BME280;35568;48.104;11.782;2023-04-29T12:45:34;95183.21;;;22.19;31.19
48156;BME280;35568;48.104;11.782;2023-04-29T12:48:01;95194.66;;;21.11;32.09
48156;BME280;35568;48.104;11.782;2023-04-29T12:50:30;95199.84;;;20.00;32.82
48156;BME280;35568;48.104;11.782;2023-04-29T12:52:56;95198.07;;;19.75;33.29
48156;BME280;35568;48.104;11.782;2023-04-29T12:55:24;95198.77;;;20.62;33.27
48156;BME280;35568;48.104;11.782;2023-04-29T12:57:52;95204.09;;;20.75;33.41
48156;BME280;35568;48.104;11.782;2023-04-29T13:00:19;95200.58;;;20.97;32.27
48156;BME280;35568;48.104;11.782;2023-04-29T13:02:46;95205.41;;;21.05;31.85